sensor_id;sensor_type;location;lat;lon;timestamp;temperature;humidity
81321;DHT22;70785;52.570;5.638;2024-01-30T00:02:12;6.80;76.70
81321;DHT22;70785;52.570;5.638;2024-01-30T00:04:38;6.80;76.70
81321;DHT22;70785;52.570;5.638;2024-01-30T00:07:04;6.80;76.70
81321;DHT22;70785;52.570;5.638;2024-01-30T00:09:31;6.80;76.70
81321;DHT22;70785;52.570;5.638;2024-01-30T00:11:57;6.70;76.80
81321;DHT22;70785;52.570;5.638;2024-01-30T00:14:23;6.70;76.80
81321;DHT22;70785;52.570;5.638;2024-01-30T00:16:50;6.70;76.90
81321;DHT22;70785;52.570;5.638;2024-01-30T00:19:16;6.60;76.90
81321;DHT22;70785;52.570;5.638;2024-01-30T00:21:42;6.60;76.90
81321;DHT22;70785;52.570;5.638;2024-01-30T00:24:08;6.70;77.00
81321;DHT22;70785;52.570;5.638;2024-01-30T00:26:35;6.60;77.00
81321;DHT22;70785;52.570;5.638;2024-01-30T00:29:01;6.60;77.10
81321;DHT22;70785;52.570;5.638;2024-01-30T00:31:27;6.60;77.10
81321;DHT22;70785;52.570;5.638;2024-01-30T00:33:54;6.60;77.10
81321;DHT22;70785;52.570;5.638;2024-01-30T00:36:20;6.60;77.10
81321;DHT22;70785;52.570;5.638;2024-01-30T00:38:46;6.60;77.10
81321;DHT22;70785;52.570;5.638;2024-01-30T00:41:12;6.60;77.10
81321;DHT22;70785;52.570;5.638;2024-01-30T00:43:38;6.60;77.10
81321;DHT22;70785;52.570;5.638;2024-01-30T00:46:04;6.60;77.10
81321;DHT22;70785;52.570;5.638;2024-01-30T00:48:30;6.60;77.20
81321;DHT22;70785;52.570;5.638;2024-01-30T00:50:57;6.60;77.20
81321;DHT22;70785;52.570;5.638;2024-01-30T00:53:23;6.60;77.20
81321;DHT22;70785;52.570;5.638;2024-01-30T00:55:49;6.60;77.20
81321;DHT22;70785;52.570;5.638;2024-01-30T00:58:15;6.60;77.20
81321;DHT22;70785;52.570;5.638;2024-01-30T01:00:41;6.60;77.20
81321;DHT22;70785;52.570;5.638;2024-01-30T01:03:07;6.60;77.30
81321;DHT22;70785;52.570;5.638;2024-01-30T01:05:33;6.60;77.20
81321;DHT22;70785;52.570;5.638;2024-01-30T01:07:59;6.50;77.20
81321;DHT22;70785;52.570;5.638;2024-01-30T01:10:25;6.50;77.30
81321;DHT22;70785;52.570;5.638;2024-01-30T01:12:51;6.60;77.30
81321;DHT22;70785;52.570;5.638;2024-01-30T01:15:18;6.60;77.30
81321;DHT22;70785;52.570;5.638;2024-01-30T01:17:44;6.60;77.30
81321;DHT22;70785;52.570;5.638;2024-01-30T01:20:10;6.70;77.30
81321;DHT22;70785;52.570;5.638;2024-01-30T01:22:38;6.70;77.30
81321;DHT22;70785;52.570;5.638;2024-01-30T01:25:08;6.70;77.30
81321;DHT22;70785;52.570;5.638;2024-01-30T01:27:34;6.70;77.30
81321;DHT22;70785;52.570;5.638;2024-01-30T01:30:04;6.80;77.20
81321;DHT22;70785;52.570;5.638;2024-01-30T01:32:31;6.80;77.10
81321;DHT22;70785;52.570;5.638;2024-01-30T01:34:57;6.80;77.10
81321;DHT22;70785;52.570;5.638;2024-01-30T01:37:24;6.90;77.00
81321;DHT22;70785;52.570;5.638;2024-01-30T01:39:52;6.90;77.00
81321;DHT22;70785;52.570;5.638;2024-01-30T01:42:18;6.90;77.00
81321;DHT22;70785;52.570;5.638;2024-01-30T01:44:44;6.90;77.00
81321;DHT22;70785;52.570;5.638;2024-01-30T01:47:11;6.90;77.00
81321;DHT22;70785;52.570;5.638;2024-01-30T01:49:37;6.90;77.00
81321;DHT22;70785;52.570;5.638;2024-01-30T01:52:04;6.90;77.00
81321;DHT22;70785;52.570;5.638;2024-01-30T01:54:30;6.90;77.00
81321;DHT22;70785;52.570;5.638;2024-01-30T01:56:57;6.90;77.10
81321;DHT22;70785;52.570;5.638;2024-01-30T01:59:23;6.80;77.00
81321;DHT22;70785;52.570;5.638;2024-01-30T02:01:51;6.80;77.10
81321;DHT22;70785;52.570;5.638;2024-01-30T02:04:19;6.80;77.10
81321;DHT22;70785;52.570;5.638;2024-01-30T02:06:45;6.70;77.20
81321;DHT22;70785;52.570;5.638;2024-01-30T02:09:11;6.70;77.20
81321;DHT22;70785;52.570;5.638;2024-01-30T02:11:38;6.80;77.20
81321;DHT22;70785;52.570;5.638;2024-01-30T02:14:05;6.70;77.20
81321;DHT22;70785;52.570;5.638;2024-01-30T02:16:31;6.70;77.20
81321;DHT22;70785;52.570;5.638;2024-01-30T02:18:58;6.80;77.20
81321;DHT22;70785;52.570;5.638;2024-01-30T02:21:24;6.80;77.20
81321;DHT22;70785;52.570;5.638;2024-01-30T02:23:51;6.90;77.10
81321;DHT22;70785;52.570;5.638;2024-01-30T02:26:18;6.90;77.10
81321;DHT22;70785;52.570;5.638;2024-01-30T02:28:44;6.90;77.00
81321;DHT22;70785;52.570;5.638;2024-01-30T02:31:10;6.90;76.90
81321;DHT22;70785;52.570;5.638;2024-01-30T02:33:36;6.90;76.90
81321;DHT22;70785;52.570;5.638;2024-01-30T02:36:02;6.90;76.80
81321;DHT22;70785;52.570;5.638;2024-01-30T02:38:28;6.90;76.80
81321;DHT22;70785;52.570;5.638;2024-01-30T02:40:55;6.90;76.80
81321;DHT22;70785;52.570;5.638;2024-01-30T02:43:23;6.90;76.80
81321;DHT22;70785;52.570;5.638;2024-01-30T02:45:49;6.90;76.80
81321;DHT22;70785;52.570;5.638;2024-01-30T02:48:15;6.90;76.80
81321;DHT22;70785;52.570;5.638;2024-01-30T02:50:41;6.90;76.80
81321;DHT22;70785;52.570;5.638;2024-01-30T02:53:07;6.90;76.80
81321;DHT22;70785;52.570;5.638;2024-01-30T02:55:33;6.90;76.80
81321;DHT22;70785;52.570;5.638;2024-01-30T02:57:59;6.90;76.80
81321;DHT22;70785;52.570;5.638;2024-01-30T03:00:25;6.90;76.70
81321;DHT22;70785;52.570;5.638;2024-01-30T03:02:52;6.90;76.70
81321;DHT22;70785;52.570;5.638;2024-01-30T03:05:18;6.90;76.70
81321;DHT22;70785;52.570;5.638;2024-01-30T03:07:44;6.90;76.70
81321;DHT22;70785;52.570;5.638;2024-01-30T03:10:10;6.80;76.80
81321;DHT22;70785;52.570;5.638;2024-01-30T03:12:36;6.80;76.80
81321;DHT22;70785;52.570;5.638;2024-01-30T03:15:02;6.80;76.80
81321;DHT22;70785;52.570;5.638;2024-01-30T03:17:28;6.80;76.80
81321;DHT22;70785;52.570;5.638;2024-01-30T03:19:54;6.80;76.80
81321;DHT22;70785;52.570;5.638;2024-01-30T03:22:20;6.70;76.80
81321;DHT22;70785;52.570;5.638;2024-01-30T03:24:46;6.70;76.80
81321;DHT22;70785;52.570;5.638;2024-01-30T03:27:13;6.70;76.80
81321;DHT22;70785;52.570;5.638;2024-01-30T03:29:39;6.60;77.00
81321;DHT22;70785;52.570;5.638;2024-01-30T03:32:05;6.70;77.00
81321;DHT22;70785;52.570;5.638;2024-01-30T03:34:31;6.60;77.10
81321;DHT22;70785;52.570;5.638;2024-01-30T03:36:57;6.60;77.10
81321;DHT22;70785;52.570;5.638;2024-01-30T03:39:23;6.70;77.10
81321;DHT22;70785;52.570;5.638;2024-01-30T03:41:49;6.70;77.10
81321;DHT22;70785;52.570;5.638;2024-01-30T03:44:16;6.80;77.00
81321;DHT22;70785;52.570;5.638;2024-01-30T03:46:42;6.80;76.90
81321;DHT22;70785;52.570;5.638;2024-01-30T03:49:09;6.90;76.90
81321;DHT22;70785;52.570;5.638;2024-01-30T03:51:35;6.90;76.90
81321;DHT22;70785;52.570;5.638;2024-01-30T03:54:01;6.90;76.80
81321;DHT22;70785;52.570;5.638;2024-01-30T03:56:27;6.90;76.70
81321;DHT22;70785;52.570;5.638;2024-01-30T03:58:54;6.90;76.70
81321;DHT22;70785;52.570;5.638;2024-01-30T04:01:20;6.90;76.70
81321;DHT22;70785;52.570;5.638;2024-01-30T04:03:46;6.90;76.60
81321;DHT22;70785;52.570;5.638;2024-01-30T04:06:12;6.90;76.70
81321;DHT22;70785;52.570;5.638;2024-01-30T04:08:38;6.90;76.60
81321;DHT22;70785;52.570;5.638;2024-01-30T04:11:05;6.90;76.70
81321;DHT22;70785;52.570;5.638;2024-01-30T04:13:32;6.90;76.70
81321;DHT22;70785;52.570;5.638;2024-01-30T04:15:59;6.90;76.70
81321;DHT22;70785;52.570;5.638;2024-01-30T04:18:27;6.90;76.70
81321;DHT22;70785;52.570;5.638;2024-01-30T04:20:54;6.90;76.60
81321;DHT22;70785;52.570;5.638;2024-01-30T04:23:20;6.90;76.60
81321;DHT22;70785;52.570;5.638;2024-01-30T04:25:46;6.90;76.50
81321;DHT22;70785;52.570;5.638;2024-01-30T04:28:12;7.00;76.50
81321;DHT22;70785;52.570;5.638;2024-01-30T04:30:38;7.00;76.50
81321;DHT22;70785;52.570;5.638;2024-01-30T04:33:05;7.00;76.50
81321;DHT22;70785;52.570;5.638;2024-01-30T04:35:31;7.00;76.40
81321;DHT22;70785;52.570;5.638;2024-01-30T04:37:57;7.00;76.40
81321;DHT22;70785;52.570;5.638;2024-01-30T04:40:23;7.00;76.30
81321;DHT22;70785;52.570;5.638;2024-01-30T04:42:49;7.00;76.20
81321;DHT22;70785;52.570;5.638;2024-01-30T04:45:15;7.00;76.20
81321;DHT22;70785;52.570;5.638;2024-01-30T04:47:41;7.10;76.20
81321;DHT22;70785;52.570;5.638;2024-01-30T04:50:08;7.10;76.10
81321;DHT22;70785;52.570;5.638;2024-01-30T04:52:35;7.10;76.10
81321;DHT22;70785;52.570;5.638;2024-01-30T04:55:01;7.00;76.10
81321;DHT22;70785;52.570;5.638;2024-01-30T04:57:28;7.00;76.10
81321;DHT22;70785;52.570;5.638;2024-01-30T04:59:54;7.00;76.20
81321;DHT22;70785;52.570;5.638;2024-01-30T05:02:20;7.00;76.20
81321;DHT22;70785;52.570;5.638;2024-01-30T05:04:46;7.00;76.20
81321;DHT22;70785;52.570;5.638;2024-01-30T05:07:12;7.00;76.20
81321;DHT22;70785;52.570;5.638;2024-01-30T05:09:38;7.00;76.20
81321;DHT22;70785;52.570;5.638;2024-01-30T05:12:04;7.00;76.10
81321;DHT22;70785;52.570;5.638;2024-01-30T05:14:30;7.00;76.10
81321;DHT22;70785;52.570;5.638;2024-01-30T05:16:56;7.00;76.20
81321;DHT22;70785;52.570;5.638;2024-01-30T05:19:22;7.00;76.10
81321;DHT22;70785;52.570;5.638;2024-01-30T05:21:49;7.00;76.10
81321;DHT22;70785;52.570;5.638;2024-01-30T05:24:16;7.00;76.10
81321;DHT22;70785;52.570;5.638;2024-01-30T05:26:42;7.10;76.00
81321;DHT22;70785;52.570;5.638;2024-01-30T05:29:08;7.20;76.00
81321;DHT22;70785;52.570;5.638;2024-01-30T05:31:34;7.20;76.00
81321;DHT22;70785;52.570;5.638;2024-01-30T05:34:01;7.20;75.90
81321;DHT22;70785;52.570;5.638;2024-01-30T05:36:27;7.20;75.90
81321;DHT22;70785;52.570;5.638;2024-01-30T05:38:53;7.20;75.90
81321;DHT22;70785;52.570;5.638;2024-01-30T05:41:19;7.20;75.90
81321;DHT22;70785;52.570;5.638;2024-01-30T05:43:47;7.20;75.90
81321;DHT22;70785;52.570;5.638;2024-01-30T05:46:13;7.20;75.80
81321;DHT22;70785;52.570;5.638;2024-01-30T05:48:39;7.20;75.80
81321;DHT22;70785;52.570;5.638;2024-01-30T05:51:07;7.20;75.80
81321;DHT22;70785;52.570;5.638;2024-01-30T05:53:33;7.20;75.80
81321;DHT22;70785;52.570;5.638;2024-01-30T05:56:01;7.20;75.80
81321;DHT22;70785;52.570;5.638;2024-01-30T05:58:28;7.20;75.80
81321;DHT22;70785;52.570;5.638;2024-01-30T06:00:54;7.30;75.80
81321;DHT22;70785;52.570;5.638;2024-01-30T06:03:20;7.30;75.70
81321;DHT22;70785;52.570;5.638;2024-01-30T06:05:46;7.40;75.70
81321;DHT22;70785;52.570;5.638;2024-01-30T06:08:13;7.40;75.70
81321;DHT22;70785;52.570;5.638;2024-01-30T06:10:39;7.40;75.70
81321;DHT22;70785;52.570;5.638;2024-01-30T06:13:05;7.40;75.70
81321;DHT22;70785;52.570;5.638;2024-01-30T06:15:31;7.50;75.70
81321;DHT22;70785;52.570;5.638;2024-01-30T06:17:58;7.50;75.70
81321;DHT22;70785;52.570;5.638;2024-01-30T06:20:25;7.50;75.70
81321;DHT22;70785;52.570;5.638;2024-01-30T06:22:51;7.50;75.70
81321;DHT22;70785;52.570;5.638;2024-01-30T06:25:17;7.50;75.70
81321;DHT22;70785;52.570;5.638;2024-01-30T06:27:43;7.50;75.70
81321;DHT22;70785;52.570;5.638;2024-01-30T06:30:10;7.50;75.70
81321;DHT22;70785;52.570;5.638;2024-01-30T06:32:36;7.50;75.70
81321;DHT22;70785;52.570;5.638;2024-01-30T06:35:02;7.60;75.60
81321;DHT22;70785;52.570;5.638;2024-01-30T06:37:29;7.50;75.60
81321;DHT22;70785;52.570;5.638;2024-01-30T06:39:55;7.50;75.70
81321;DHT22;70785;52.570;5.638;2024-01-30T06:42:21;7.50;75.60
81321;DHT22;70785;52.570;5.638;2024-01-30T06:44:47;7.50;75.60
81321;DHT22;70785;52.570;5.638;2024-01-30T06:47:13;7.50;75.60
81321;DHT22;70785;52.570;5.638;2024-01-30T06:49:39;7.50;75.60
81321;DHT22;70785;52.570;5.638;2024-01-30T06:52:08;7.50;75.60
81321;DHT22;70785;52.570;5.638;2024-01-30T06:54:34;7.50;75.70
81321;DHT22;70785;52.570;5.638;2024-01-30T06:57:00;7.50;75.70
81321;DHT22;70785;52.570;5.638;2024-01-30T06:59:26;7.50;75.70
81321;DHT22;70785;52.570;5.638;2024-01-30T07:01:52;7.50;75.70
81321;DHT22;70785;52.570;5.638;2024-01-30T07:04:19;7.50;75.70
81321;DHT22;70785;52.570;5.638;2024-01-30T07:06:45;7.50;75.70
81321;DHT22;70785;52.570;5.638;2024-01-30T07:09:12;7.50;75.70
81321;DHT22;70785;52.570;5.638;2024-01-30T07:11:39;7.50;75.70
81321;DHT22;70785;52.570;5.638;2024-01-30T07:14:05;7.50;75.70
81321;DHT22;70785;52.570;5.638;2024-01-30T07:16:31;7.40;75.80
81321;DHT22;70785;52.570;5.638;2024-01-30T07:18:57;7.50;75.80
81321;DHT22;70785;52.570;5.638;2024-01-30T07:21:23;7.50;75.80
81321;DHT22;70785;52.570;5.638;2024-01-30T07:23:54;7.50;75.80
81321;DHT22;70785;52.570;5.638;2024-01-30T07:26:21;7.40;75.80
81321;DHT22;70785;52.570;5.638;2024-01-30T07:28:47;7.50;75.80
81321;DHT22;70785;52.570;5.638;2024-01-30T07:31:13;7.50;75.80
81321;DHT22;70785;52.570;5.638;2024-01-30T07:33:39;7.40;75.80
81321;DHT22;70785;52.570;5.638;2024-01-30T07:36:07;7.40;75.90
81321;DHT22;70785;52.570;5.638;2024-01-30T07:38:33;7.40;76.00
81321;DHT22;70785;52.570;5.638;2024-01-30T07:41:00;7.40;76.00
81321;DHT22;70785;52.570;5.638;2024-01-30T07:43:26;7.40;76.00
81321;DHT22;70785;52.570;5.638;2024-01-30T07:45:52;7.40;76.00
81321;DHT22;70785;52.570;5.638;2024-01-30T07:48:18;7.40;76.10
81321;DHT22;70785;52.570;5.638;2024-01-30T07:50:44;7.40;76.10
81321;DHT22;70785;52.570;5.638;2024-01-30T07:53:10;7.40;76.10
81321;DHT22;70785;52.570;5.638;2024-01-30T07:55:37;7.50;76.20
81321;DHT22;70785;52.570;5.638;2024-01-30T07:58:03;7.50;76.20
81321;DHT22;70785;52.570;5.638;2024-01-30T08:00:30;7.50;76.20
81321;DHT22;70785;52.570;5.638;2024-01-30T08:02:56;7.50;76.20
81321;DHT22;70785;52.570;5.638;2024-01-30T08:05:23;7.60;76.20
81321;DHT22;70785;52.570;5.638;2024-01-30T08:07:49;7.60;76.20
81321;DHT22;70785;52.570;5.638;2024-01-30T08:10:16;7.80;76.20
81321;DHT22;70785;52.570;5.638;2024-01-30T08:12:44;7.80;76.20
81321;DHT22;70785;52.570;5.638;2024-01-30T08:15:11;7.80;76.20
81321;DHT22;70785;52.570;5.638;2024-01-30T08:17:39;7.80;76.20
81321;DHT22;70785;52.570;5.638;2024-01-30T08:20:06;7.90;76.10
81321;DHT22;70785;52.570;5.638;2024-01-30T08:22:34;8.00;76.10
81321;DHT22;70785;52.570;5.638;2024-01-30T08:25:00;8.00;76.10
81321;DHT22;70785;52.570;5.638;2024-01-30T08:27:26;8.10;76.00
81321;DHT22;70785;52.570;5.638;2024-01-30T08:29:52;8.10;76.00
81321;DHT22;70785;52.570;5.638;2024-01-30T08:32:18;8.20;76.00
81321;DHT22;70785;52.570;5.638;2024-01-30T08:34:44;8.20;75.90
81321;DHT22;70785;52.570;5.638;2024-01-30T08:37:10;8.30;75.90
81321;DHT22;70785;52.570;5.638;2024-01-30T08:39:37;8.30;75.90
81321;DHT22;70785;52.570;5.638;2024-01-30T08:42:04;8.40;75.90
81321;DHT22;70785;52.570;5.638;2024-01-30T08:44:30;8.40;75.80
81321;DHT22;70785;52.570;5.638;2024-01-30T08:46:56;8.40;75.70
81321;DHT22;70785;52.570;5.638;2024-01-30T08:49:22;8.40;75.80
81321;DHT22;70785;52.570;5.638;2024-01-30T08:51:48;8.50;75.70
81321;DHT22;70785;52.570;5.638;2024-01-30T08:54:14;8.60;75.70
81321;DHT22;70785;52.570;5.638;2024-01-30T08:56:40;8.60;75.60
81321;DHT22;70785;52.570;5.638;2024-01-30T08:59:06;8.60;75.60
81321;DHT22;70785;52.570;5.638;2024-01-30T09:01:33;8.70;75.60
81321;DHT22;70785;52.570;5.638;2024-01-30T09:03:59;8.80;75.60
81321;DHT22;70785;52.570;5.638;2024-01-30T09:06:25;8.80;75.50
81321;DHT22;70785;52.570;5.638;2024-01-30T09:08:54;8.80;75.50
81321;DHT22;70785;52.570;5.638;2024-01-30T09:11:20;8.90;75.50
81321;DHT22;70785;52.570;5.638;2024-01-30T09:13:46;8.90;75.50
81321;DHT22;70785;52.570;5.638;2024-01-30T09:16:12;8.90;75.50
81321;DHT22;70785;52.570;5.638;2024-01-30T09:18:38;9.00;75.50
81321;DHT22;70785;52.570;5.638;2024-01-30T09:21:05;9.00;75.50
81321;DHT22;70785;52.570;5.638;2024-01-30T09:23:31;9.10;75.40
81321;DHT22;70785;52.570;5.638;2024-01-30T09:25:57;9.20;75.40
81321;DHT22;70785;52.570;5.638;2024-01-30T09:28:23;9.40;75.40
81321;DHT22;70785;52.570;5.638;2024-01-30T09:30:49;9.40;75.30
81321;DHT22;70785;52.570;5.638;2024-01-30T09:33:15;9.50;75.20
81321;DHT22;70785;52.570;5.638;2024-01-30T09:35:42;9.60;75.10
81321;DHT22;70785;52.570;5.638;2024-01-30T09:38:08;9.70;75.10
81321;DHT22;70785;52.570;5.638;2024-01-30T09:40:34;9.80;75.00
81321;DHT22;70785;52.570;5.638;2024-01-30T09:43:00;9.90;74.90
81321;DHT22;70785;52.570;5.638;2024-01-30T09:45:26;10.00;74.80
81321;DHT22;70785;52.570;5.638;2024-01-30T09:47:53;10.00;74.80
81321;DHT22;70785;52.570;5.638;2024-01-30T09:50:19;10.10;74.70
81321;DHT22;70785;52.570;5.638;2024-01-30T09:52:47;10.20;74.60
81321;DHT22;70785;52.570;5.638;2024-01-30T09:55:13;10.20;74.60
81321;DHT22;70785;52.570;5.638;2024-01-30T09:57:41;10.30;74.50
81321;DHT22;70785;52.570;5.638;2024-01-30T10:00:08;10.30;74.50
81321;DHT22;70785;52.570;5.638;2024-01-30T10:02:42;10.50;74.40
81321;DHT22;70785;52.570;5.638;2024-01-30T10:05:08;10.50;74.20
81321;DHT22;70785;52.570;5.638;2024-01-30T10:07:35;10.60;74.10
81321;DHT22;70785;52.570;5.638;2024-01-30T10:10:01;10.70;73.90
81321;DHT22;70785;52.570;5.638;2024-01-30T10:12:29;10.70;73.80
81321;DHT22;70785;52.570;5.638;2024-01-30T10:14:56;10.80;73.70
81321;DHT22;70785;52.570;5.638;2024-01-30T10:17:25;10.80;73.60
81321;DHT22;70785;52.570;5.638;2024-01-30T10:19:51;10.90;73.60
81321;DHT22;70785;52.570;5.638;2024-01-30T10:22:18;10.90;73.30
81321;DHT22;70785;52.570;5.638;2024-01-30T10:24:44;10.80;73.20
81321;DHT22;70785;52.570;5.638;2024-01-30T10:27:11;10.90;73.20
81321;DHT22;70785;52.570;5.638;2024-01-30T10:29:37;10.90;73.10
81321;DHT22;70785;52.570;5.638;2024-01-30T10:32:04;10.90;72.90
81321;DHT22;70785;52.570;5.638;2024-01-30T10:34:31;10.90;72.90
81321;DHT22;70785;52.570;5.638;2024-01-30T10:37:07;10.90;72.80
81321;DHT22;70785;52.570;5.638;2024-01-30T10:39:45;10.90;72.70
81321;DHT22;70785;52.570;5.638;2024-01-30T10:42:13;10.90;72.60
81321;DHT22;70785;52.570;5.638;2024-01-30T10:47:34;11.00;72.30
81321;DHT22;70785;52.570;5.638;2024-01-30T10:50:02;11.00;72.10
81321;DHT22;70785;52.570;5.638;2024-01-30T10:52:29;11.00;71.90
81321;DHT22;70785;52.570;5.638;2024-01-30T10:54:56;11.00;71.90
81321;DHT22;70785;52.570;5.638;2024-01-30T10:57:26;10.90;71.90
81321;DHT22;70785;52.570;5.638;2024-01-30T10:59:57;10.90;71.80
81321;DHT22;70785;52.570;5.638;2024-01-30T11:02:24;10.90;71.80
81321;DHT22;70785;52.570;5.638;2024-01-30T11:04:58;10.80;71.70
81321;DHT22;70785;52.570;5.638;2024-01-30T11:07:27;10.80;71.70
81321;DHT22;70785;52.570;5.638;2024-01-30T11:10:03;10.70;71.50
81321;DHT22;70785;52.570;5.638;2024-01-30T11:12:31;10.60;71.50
81321;DHT22;70785;52.570;5.638;2024-01-30T11:15:07;10.50;71.40
81321;DHT22;70785;52.570;5.638;2024-01-30T11:17:44;10.40;71.30
81321;DHT22;70785;52.570;5.638;2024-01-30T11:20:21;10.30;70.70
81321;DHT22;70785;52.570;5.638;2024-01-30T11:22:51;10.20;70.20
81321;DHT22;70785;52.570;5.638;2024-01-30T11:25:20;10.20;69.80
81321;DHT22;70785;52.570;5.638;2024-01-30T11:27:46;10.20;69.50
81321;DHT22;70785;52.570;5.638;2024-01-30T11:33:09;10.10;68.90
81321;DHT22;70785;52.570;5.638;2024-01-30T11:35:44;10.00;68.90
81321;DHT22;70785;52.570;5.638;2024-01-30T11:38:13;10.00;69.10
81321;DHT22;70785;52.570;5.638;2024-01-30T11:40:40;10.00;69.20
81321;DHT22;70785;52.570;5.638;2024-01-30T11:43:07;10.00;69.50
81321;DHT22;70785;52.570;5.638;2024-01-30T11:45:34;10.00;69.50
81321;DHT22;70785;52.570;5.638;2024-01-30T11:48:01;10.00;69.30
81321;DHT22;70785;52.570;5.638;2024-01-30T11:50:30;10.00;69.40
81321;DHT22;70785;52.570;5.638;2024-01-30T11:52:56;9.90;69.50
81321;DHT22;70785;52.570;5.638;2024-01-30T11:55:24;9.80;69.50
81321;DHT22;70785;52.570;5.638;2024-01-30T11:57:50;9.80;69.40
81321;DHT22;70785;52.570;5.638;2024-01-30T12:00:17;9.70;69.60
81321;DHT22;70785;52.570;5.638;2024-01-30T12:02:48;9.60;69.70
81321;DHT22;70785;52.570;5.638;2024-01-30T12:05:14;9.60;69.80
81321;DHT22;70785;52.570;5.638;2024-01-30T12:07:44;9.60;69.80
81321;DHT22;70785;52.570;5.638;2024-01-30T12:10:10;9.60;69.80
81321;DHT22;70785;52.570;5.638;2024-01-30T12:12:37;9.50;69.90
81321;DHT22;70785;52.570;5.638;2024-01-30T12:15:04;9.50;69.90
81321;DHT22;70785;52.570;5.638;2024-01-30T12:17:32;9.40;70.00
81321;DHT22;70785;52.570;5.638;2024-01-30T12:20:15;9.40;70.20
81321;DHT22;70785;52.570;5.638;2024-01-30T12:22:43;9.40;70.30
81321;DHT22;70785;52.570;5.638;2024-01-30T12:25:14;9.40;70.30
81321;DHT22;70785;52.570;5.638;2024-01-30T12:27:43;9.30;70.50
81321;DHT22;70785;52.570;5.638;2024-01-30T12:30:12;9.20;70.90
81321;DHT22;70785;52.570;5.638;2024-01-30T12:32:44;9.20;71.20
81321;DHT22;70785;52.570;5.638;2024-01-30T12:35:12;9.00;71.50
81321;DHT22;70785;52.570;5.638;2024-01-30T12:37:41;9.00;71.80
81321;DHT22;70785;52.570;5.638;2024-01-30T12:40:08;9.00;72.00
81321;DHT22;70785;52.570;5.638;2024-01-30T12:42:35;9.00;72.10
81321;DHT22;70785;52.570;5.638;2024-01-30T12:45:05;9.00;72.10
81321;DHT22;70785;52.570;5.638;2024-01-30T12:47:31;9.20;72.00
81321;DHT22;70785;52.570;5.638;2024-01-30T12:49:58;9.20;71.80
81321;DHT22;70785;52.570;5.638;2024-01-30T12:52:24;9.40;71.60
81321;DHT22;70785;52.570;5.638;2024-01-30T12:54:51;9.40;71.50
81321;DHT22;70785;52.570;5.638;2024-01-30T12:57:18;9.50;71.30
81321;DHT22;70785;52.570;5.638;2024-01-30T12:59:45;9.40;71.40
81321;DHT22;70785;52.570;5.638;2024-01-30T13:02:13;9.50;71.30
81321;DHT22;70785;52.570;5.638;2024-01-30T13:04:39;9.40;71.20
81321;DHT22;70785;52.570;5.638;2024-01-30T13:07:06;9.40;71.40
81321;DHT22;70785;52.570;5.638;2024-01-30T13:09:32;9.20;71.50
81321;DHT22;70785;52.570;5.638;2024-01-30T13:11:59;9.20;71.70
81321;DHT22;70785;52.570;5.638;2024-01-30T13:14:25;9.10;72.10
81321;DHT22;70785;52.570;5.638;2024-01-30T13:16:52;9.00;72.30
81321;DHT22;70785;52.570;5.638;2024-01-30T13:19:18;9.00;72.60
81321;DHT22;70785;52.570;5.638;2024-01-30T13:21:44;8.90;72.80
81321;DHT22;70785;52.570;5.638;2024-01-30T13:24:10;8.90;73.00
81321;DHT22;70785;52.570;5.638;2024-01-30T13:26:37;8.90;73.20
81321;DHT22;70785;52.570;5.638;2024-01-30T13:29:03;8.90;73.30
81321;DHT22;70785;52.570;5.638;2024-01-30T13:31:29;8.90;73.50
81321;DHT22;70785;52.570;5.638;2024-01-30T13:33:56;8.80;73.70
81321;DHT22;70785;52.570;5.638;2024-01-30T13:36:22;8.80;73.80
81321;DHT22;70785;52.570;5.638;2024-01-30T13:38:48;8.70;73.90
81321;DHT22;70785;52.570;5.638;2024-01-30T13:41:14;8.60;74.20
81321;DHT22;70785;52.570;5.638;2024-01-30T13:43:43;8.60;74.40
81321;DHT22;70785;52.570;5.638;2024-01-30T13:46:09;8.60;74.50
81321;DHT22;70785;52.570;5.638;2024-01-30T13:48:36;8.60;74.60
81321;DHT22;70785;52.570;5.638;2024-01-30T13:51:02;8.50;74.80
81321;DHT22;70785;52.570;5.638;2024-01-30T13:53:28;8.50;75.00
81321;DHT22;70785;52.570;5.638;2024-01-30T13:55:54;8.40;75.20
81321;DHT22;70785;52.570;5.638;2024-01-30T13:58:21;8.40;75.30
81321;DHT22;70785;52.570;5.638;2024-01-30T14:00:47;8.40;75.40
81321;DHT22;70785;52.570;5.638;2024-01-30T14:03:13;8.40;75.50
81321;DHT22;70785;52.570;5.638;2024-01-30T14:05:39;8.30;75.70
81321;DHT22;70785;52.570;5.638;2024-01-30T14:08:06;8.30;75.90
81321;DHT22;70785;52.570;5.638;2024-01-30T14:10:34;8.20;76.10
81321;DHT22;70785;52.570;5.638;2024-01-30T14:13:00;8.20;76.40
81321;DHT22;70785;52.570;5.638;2024-01-30T14:15:26;8.10;76.50
81321;DHT22;70785;52.570;5.638;2024-01-30T14:17:53;8.10;76.60
81321;DHT22;70785;52.570;5.638;2024-01-30T14:20:19;8.10;76.80
81321;DHT22;70785;52.570;5.638;2024-01-30T14:22:45;8.10;77.00
81321;DHT22;70785;52.570;5.638;2024-01-30T14:25:12;8.00;77.20
81321;DHT22;70785;52.570;5.638;2024-01-30T14:27:38;8.00;77.40
81321;DHT22;70785;52.570;5.638;2024-01-30T14:30:04;8.00;77.50
81321;DHT22;70785;52.570;5.638;2024-01-30T14:32:31;8.00;77.80
81321;DHT22;70785;52.570;5.638;2024-01-30T14:34:57;8.00;77.90
81321;DHT22;70785;52.570;5.638;2024-01-30T14:37:23;8.00;78.00
81321;DHT22;70785;52.570;5.638;2024-01-30T14:39:49;7.90;78.20
81321;DHT22;70785;52.570;5.638;2024-01-30T14:42:16;7.90;78.30
81321;DHT22;70785;52.570;5.638;2024-01-30T14:44:42;7.90;78.40
81321;DHT22;70785;52.570;5.638;2024-01-30T14:47:09;7.80;78.50
81321;DHT22;70785;52.570;5.638;2024-01-30T14:49:35;7.80;78.70
81321;DHT22;70785;52.570;5.638;2024-01-30T14:52:01;7.80;78.80
81321;DHT22;70785;52.570;5.638;2024-01-30T14:54:30;7.80;78.90
81321;DHT22;70785;52.570;5.638;2024-01-30T14:56:56;7.80;79.00
81321;DHT22;70785;52.570;5.638;2024-01-30T14:59:23;7.80;79.10
81321;DHT22;70785;52.570;5.638;2024-01-30T15:01:49;7.80;79.20
81321;DHT22;70785;52.570;5.638;2024-01-30T15:04:15;7.80;79.20
81321;DHT22;70785;52.570;5.638;2024-01-30T15:06:42;7.80;79.20
81321;DHT22;70785;52.570;5.638;2024-01-30T15:09:11;7.80;79.20
81321;DHT22;70785;52.570;5.638;2024-01-30T15:11:41;7.80;79.30
81321;DHT22;70785;52.570;5.638;2024-01-30T15:14:07;7.80;79.40
81321;DHT22;70785;52.570;5.638;2024-01-30T15:16:34;7.80;79.40
81321;DHT22;70785;52.570;5.638;2024-01-30T15:19:00;7.80;79.40
81321;DHT22;70785;52.570;5.638;2024-01-30T15:21:26;7.80;79.40
81321;DHT22;70785;52.570;5.638;2024-01-30T15:23:54;7.80;79.40
81321;DHT22;70785;52.570;5.638;2024-01-30T15:26:20;7.80;79.60
81321;DHT22;70785;52.570;5.638;2024-01-30T15:28:47;7.80;79.60
81321;DHT22;70785;52.570;5.638;2024-01-30T15:31:13;7.80;79.50
81321;DHT22;70785;52.570;5.638;2024-01-30T15:33:39;7.80;79.50
81321;DHT22;70785;52.570;5.638;2024-01-30T15:36:06;7.80;79.40
81321;DHT22;70785;52.570;5.638;2024-01-30T15:38:32;7.70;79.40
81321;DHT22;70785;52.570;5.638;2024-01-30T15:40:58;7.70;79.40
81321;DHT22;70785;52.570;5.638;2024-01-30T15:43:24;7.60;79.40
81321;DHT22;70785;52.570;5.638;2024-01-30T15:45:50;7.60;79.40
81321;DHT22;70785;52.570;5.638;2024-01-30T15:48:18;7.60;79.50